createdAt,value
2018-12-22T00:01:22.721Z,66.88
2018-12-22T00:04:26.789Z,66.55
2018-12-22T00:07:30.725Z,66.95
2018-12-22T00:10:34.824Z,66.92
2018-12-22T00:13:38.756Z,66.81
2018-12-22T00:16:42.896Z,66.87
2018-12-22T00:19:46.842Z,66.89
2018-12-22T00:22:50.896Z,67.02
2018-12-22T00:25:54.828Z,66.92
2018-12-22T00:28:58.870Z,67.16
2018-12-22T00:32:02.793Z,67.37
2018-12-22T00:35:06.928Z,67.61
2018-12-22T00:38:10.877Z,67.41
2018-12-22T00:41:14.959Z,67.64
2018-12-22T00:44:18.892Z,67.67
2018-12-22T00:47:23.088Z,67.96
2018-12-22T00:50:27.140Z,68.33
2018-12-22T00:53:31.220Z,68.04
2018-12-22T00:56:35.157Z,68.21
2018-12-22T00:59:39.245Z,68.30
2018-12-22T01:02:43.245Z,68.06
2018-12-22T01:05:47.385Z,68.56
2018-12-22T01:08:51.355Z,68.64
2018-12-22T01:11:55.408Z,68.37
2018-12-22T01:14:59.354Z,68.35
2018-12-22T01:18:03.417Z,67.94
2018-12-22T01:21:07.356Z,68.70
2018-12-22T01:24:11.451Z,68.58
2018-12-22T01:27:15.412Z,68.64
2018-12-22T01:30:19.481Z,69.11
2018-12-22T01:33:23.420Z,69.03
2018-12-22T01:36:27.485Z,69.36
2018-12-22T01:39:31.471Z,69.12
2018-12-22T01:42:35.640Z,70.03
2018-12-22T01:45:39.592Z,69.80
2018-12-22T01:48:43.668Z,71.14
2018-12-22T01:51:47.604Z,71.46
2018-12-22T01:54:51.792Z,72.74
2018-12-22T01:57:55.744Z,70.72
2018-12-22T02:00:59.824Z,69.20
2018-12-22T02:04:03.761Z,69.40
2018-12-22T02:07:07.814Z,69.42
2018-12-22T02:10:11.744Z,69.43
2018-12-22T02:13:15.888Z,69.73
2018-12-22T02:16:19.811Z,69.95
2018-12-22T02:19:24.009Z,69.28
2018-12-22T02:22:27.934Z,68.76
2018-12-22T02:25:32.029Z,68.63
2018-12-22T02:28:35.963Z,68.83
2018-12-22T02:31:40.158Z,68.97
2018-12-22T02:34:44.109Z,68.62
2018-12-22T02:37:48.155Z,68.32
2018-12-22T02:40:52.094Z,67.99
2018-12-22T02:43:56.108Z,67.65
2018-12-22T02:47:00.061Z,67.19
2018-12-22T02:50:04.650Z,67.33
2018-12-22T02:53:08.576Z,66.91
2018-12-22T02:56:12.988Z,66.85
2018-12-22T02:59:16.918Z,67.67
2018-12-22T03:02:21.010Z,67.85
2018-12-22T03:05:25.027Z,67.57
2018-12-22T03:08:29.245Z,67.73
2018-12-22T03:11:33.191Z,67.50
2018-12-22T03:14:37.276Z,66.92
2018-12-22T03:17:41.316Z,67.02
2018-12-22T03:20:45.397Z,67.19
2018-12-22T03:23:49.340Z,67.02
2018-12-22T03:26:53.532Z,66.94
2018-12-22T03:29:57.490Z,67.54
2018-12-22T03:33:01.554Z,67.44
2018-12-22T03:36:05.488Z,68.00
2018-12-22T03:39:09.565Z,67.41
2018-12-22T03:42:13.614Z,68.03
2018-12-22T03:45:17.817Z,67.67
2018-12-22T03:48:21.765Z,67.61
2018-12-22T03:51:25.836Z,67.76
2018-12-22T03:54:29.788Z,68.48
2018-12-22T03:57:33.860Z,68.62
2018-12-22T04:00:37.800Z,68.76
2018-12-22T04:03:41.889Z,69.12
2018-12-22T04:06:45.824Z,69.44
2018-12-22T04:09:49.913Z,69.61
2018-12-22T04:12:53.840Z,70.17
2018-12-22T04:15:57.941Z,70.39
2018-12-22T04:19:01.873Z,70.47
2018-12-22T04:22:05.969Z,70.63
2018-12-22T04:25:09.904Z,70.76
2018-12-22T04:28:13.994Z,70.55
2018-12-22T04:31:17.976Z,70.70
2018-12-22T04:34:22.022Z,70.78
2018-12-22T04:37:25.948Z,70.81
2018-12-22T04:40:30.986Z,70.86
2018-12-22T04:43:34.960Z,70.05
2018-12-22T04:46:39.103Z,69.98
2018-12-22T04:49:43.053Z,69.80
2018-12-22T04:52:47.332Z,69.89
2018-12-22T04:55:51.280Z,69.57
2018-12-22T04:58:55.358Z,69.17
2018-12-22T05:01:59.289Z,69.01
2018-12-22T05:05:03.320Z,69.36
2018-12-22T05:08:07.254Z,69.00
2018-12-22T05:11:11.310Z,69.14
2018-12-22T05:14:15.255Z,68.38
2018-12-22T05:17:19.333Z,68.21
2018-12-22T05:20:23.285Z,68.17
2018-12-22T05:23:27.327Z,68.01
2018-12-22T05:26:31.256Z,67.83
2018-12-22T05:29:35.392Z,68.19
2018-12-22T05:32:39.340Z,68.20
2018-12-22T05:35:43.352Z,68.01
2018-12-22T05:38:47.316Z,68.13
2018-12-22T05:41:51.439Z,68.12
2018-12-22T05:44:55.377Z,68.09
2018-12-22T05:47:59.669Z,68.42
2018-12-22T05:51:03.603Z,68.24
2018-12-22T05:54:07.759Z,68.15
2018-12-22T05:57:11.700Z,68.53
2018-12-22T06:00:15.830Z,68.61
2018-12-22T06:03:19.764Z,68.68
2018-12-22T06:06:23.853Z,69.00
2018-12-22T06:09:27.794Z,68.98
2018-12-22T06:12:31.813Z,68.91
2018-12-22T06:15:35.759Z,69.32
2018-12-22T06:18:39.804Z,69.42
2018-12-22T06:21:43.776Z,69.47
2018-12-22T06:24:47.938Z,69.60
2018-12-22T06:27:51.917Z,69.59
2018-12-22T06:30:55.973Z,69.54
2018-12-22T06:33:59.904Z,69.37
2018-12-22T06:37:03.987Z,69.08
2018-12-22T06:40:08.326Z,68.98
2018-12-22T06:43:12.427Z,68.57
2018-12-22T06:46:16.360Z,68.41
2018-12-22T06:49:20.464Z,68.29
2018-12-22T06:52:24.420Z,67.95
2018-12-22T06:55:28.480Z,67.60
2018-12-22T06:58:32.424Z,67.73
2018-12-22T07:01:36.505Z,67.33
2018-12-22T07:04:40.444Z,67.52
2018-12-22T07:07:44.629Z,67.71
2018-12-22T07:10:48.569Z,67.40
2018-12-22T07:13:52.613Z,67.56
2018-12-22T07:16:56.637Z,67.36
2018-12-22T07:20:00.785Z,67.35
2018-12-22T07:23:04.991Z,67.15
2018-12-22T07:26:09.017Z,67.47
2018-12-22T07:29:13.000Z,67.22
2018-12-22T07:32:17.257Z,67.54
2018-12-22T07:35:21.196Z,67.52
2018-12-22T07:38:25.276Z,67.35
2018-12-22T07:41:29.236Z,67.35
2018-12-22T07:44:33.280Z,67.19
2018-12-22T07:47:37.254Z,67.51
2018-12-22T07:50:41.268Z,67.19
2018-12-22T07:53:45.210Z,67.39
2018-12-22T07:56:49.357Z,67.05
2018-12-22T07:59:53.328Z,67.55
2018-12-22T08:02:57.384Z,67.88
2018-12-22T08:06:01.338Z,68.91
2018-12-22T08:09:06.642Z,69.98
2018-12-22T08:12:10.609Z,71.64
2018-12-22T08:15:14.765Z,72.72
2018-12-22T08:18:18.709Z,73.41
2018-12-22T08:21:22.793Z,74.36
2018-12-22T08:24:26.733Z,75.28
2018-12-22T08:27:30.820Z,75.72
2018-12-22T08:30:43.337Z,76.20
2018-12-22T08:33:40.818Z,75.97
2018-12-22T08:36:44.789Z,75.96
2018-12-22T08:39:48.920Z,75.89
2018-12-22T08:42:52.879Z,75.30
2018-12-22T08:45:56.952Z,75.15
2018-12-22T08:49:00.889Z,75.19
2018-12-22T08:52:04.981Z,74.44
2018-12-22T08:55:08.956Z,74.28
2018-12-22T08:58:13.109Z,73.93
2018-12-22T09:01:17.044Z,73.50
2018-12-22T09:04:21.129Z,73.79
2018-12-22T09:07:25.072Z,73.64
2018-12-22T09:10:29.156Z,73.29
2018-12-22T09:13:33.105Z,73.27
2018-12-22T09:16:37.121Z,73.31
2018-12-22T09:19:41.075Z,72.82
2018-12-22T09:22:45.110Z,72.98
2018-12-22T09:25:49.053Z,72.17
2018-12-22T09:28:53.227Z,72.04
2018-12-22T09:31:57.164Z,72.80
2018-12-22T09:35:01.291Z,72.86
2018-12-22T09:38:05.265Z,73.28
2018-12-22T09:41:10.109Z,73.46
2018-12-22T09:44:14.056Z,73.65
2018-12-22T09:47:18.360Z,73.96
2018-12-22T09:50:22.305Z,73.72
2018-12-22T09:53:26.473Z,73.66
2018-12-22T09:56:30.409Z,73.23
2018-12-22T09:59:34.577Z,72.94
2018-12-22T10:02:38.528Z,73.31
2018-12-22T10:05:43.345Z,72.91
2018-12-22T10:08:47.280Z,73.07
2018-12-22T10:11:51.369Z,72.73
2018-12-22T10:14:55.312Z,72.50
2018-12-22T10:17:59.392Z,72.68
2018-12-22T10:21:03.377Z,73.68
2018-12-22T10:24:07.432Z,73.06
2018-12-22T10:27:11.369Z,72.85
2018-12-22T10:30:15.455Z,72.62
2018-12-22T10:33:19.554Z,71.73
2018-12-22T10:36:23.676Z,70.44
2018-12-22T10:39:27.625Z,71.10
2018-12-22T10:42:31.666Z,69.77
2018-12-22T10:45:35.606Z,69.47
2018-12-22T10:48:39.737Z,69.68
2018-12-22T10:51:43.680Z,68.90
2018-12-22T10:54:47.697Z,69.01
2018-12-22T10:57:51.662Z,69.72
2018-12-22T11:00:55.812Z,69.58
2018-12-22T11:03:59.756Z,69.45
2018-12-22T11:07:03.828Z,69.78
2018-12-22T11:10:13.366Z,69.21
2018-12-22T11:13:17.496Z,69.65
2018-12-22T11:16:21.440Z,69.26
2018-12-22T11:19:25.495Z,69.75
2018-12-22T11:22:29.477Z,69.44
2018-12-22T11:25:33.536Z,69.47
2018-12-22T11:28:37.515Z,69.57
2018-12-22T11:31:41.856Z,69.21
2018-12-22T11:34:45.819Z,69.13
2018-12-22T11:37:49.976Z,69.58
2018-12-22T11:40:53.917Z,71.39
2018-12-22T11:43:57.956Z,71.95
2018-12-22T11:47:07.741Z,72.69
2018-12-22T11:50:18.432Z,74.08
2018-12-22T11:53:22.377Z,73.88
2018-12-22T11:56:26.456Z,73.59
2018-12-22T11:59:30.404Z,73.30
2018-12-22T12:02:34.646Z,73.12
2018-12-22T12:05:38.620Z,72.64
2018-12-22T12:08:42.720Z,71.77
2018-12-22T12:11:46.657Z,70.41
2018-12-22T12:14:50.764Z,70.68
2018-12-22T12:18:27.157Z,69.53
2018-12-22T12:21:31.233Z,69.50
2018-12-22T12:24:35.167Z,69.12
2018-12-22T12:27:39.256Z,68.93
2018-12-22T12:30:43.192Z,68.54
2018-12-22T12:33:47.221Z,67.60
2018-12-22T12:36:51.228Z,67.75
2018-12-22T12:39:55.377Z,67.55
2018-12-22T12:42:59.467Z,67.51
2018-12-22T12:46:03.557Z,68.26
2018-12-22T12:49:07.889Z,68.69
2018-12-22T12:52:12.093Z,69.44
2018-12-22T12:55:16.110Z,69.81
2018-12-22T12:58:20.208Z,71.05
2018-12-22T13:01:24.430Z,71.15
2018-12-22T13:04:28.778Z,71.51
2018-12-22T13:07:32.785Z,71.47
2018-12-22T13:10:37.146Z,72.42
2018-12-22T13:13:45.157Z,72.46
2018-12-22T13:16:49.200Z,72.99
2018-12-22T13:19:53.149Z,72.78
2018-12-22T13:22:57.209Z,72.50
2018-12-22T13:26:01.182Z,72.80
2018-12-22T13:29:05.274Z,73.57
2018-12-22T13:32:09.804Z,73.77
2018-12-22T13:35:14.555Z,74.27
2018-12-22T13:38:18.501Z,74.44
2018-12-22T13:41:22.568Z,74.49
2018-12-22T13:44:26.797Z,73.83
2018-12-22T13:47:30.938Z,73.20
2018-12-22T13:50:35.038Z,73.04
2018-12-22T13:53:39.201Z,71.92
2018-12-22T13:56:43.161Z,71.71
2018-12-22T13:59:47.237Z,71.79
2018-12-22T14:02:51.217Z,71.79
2018-12-22T14:05:55.477Z,71.22
2018-12-22T14:08:59.429Z,71.38
2018-12-22T14:12:03.497Z,71.18
2018-12-22T14:15:14.588Z,71.29
2018-12-22T14:18:26.254Z,70.94
2018-12-22T14:21:30.194Z,71.26
2018-12-22T14:24:34.405Z,70.95
2018-12-22T14:27:38.341Z,69.72
2018-12-22T14:30:42.424Z,69.02
2018-12-22T14:33:46.361Z,68.53
2018-12-22T14:36:50.477Z,68.83
2018-12-22T14:39:54.440Z,69.18
2018-12-22T14:42:58.480Z,68.54
2018-12-22T14:46:02.441Z,68.52
2018-12-22T14:49:06.505Z,68.58
2018-12-22T14:52:10.446Z,68.38
2018-12-22T14:55:14.535Z,67.82
2018-12-22T14:58:18.537Z,68.94
2018-12-22T15:01:22.665Z,68.80
2018-12-22T15:04:26.658Z,69.04
2018-12-22T15:07:30.824Z,68.99
2018-12-22T15:10:34.770Z,69.78
2018-12-22T15:13:38.820Z,69.67
2018-12-22T15:16:42.768Z,69.23
2018-12-22T15:19:46.797Z,69.59
2018-12-22T15:22:50.735Z,69.17
2018-12-22T15:25:54.762Z,68.84
2018-12-22T15:28:58.713Z,68.89
2018-12-22T15:32:02.793Z,67.90
2018-12-22T15:35:08.852Z,68.17
2018-12-22T15:38:12.969Z,65.67
2018-12-22T15:41:16.938Z,66.51
2018-12-22T15:44:21.002Z,65.90
2018-12-22T15:47:24.941Z,65.57
2018-12-22T15:50:37.524Z,65.47
2018-12-22T15:53:41.472Z,66.66
2018-12-22T15:56:45.550Z,69.44
2018-12-22T15:59:49.504Z,70.48
2018-12-22T16:02:53.641Z,71.26
2018-12-22T16:05:57.679Z,73.74
2018-12-22T16:09:01.808Z,73.50
2018-12-22T16:12:05.749Z,75.91
2018-12-22T16:15:14.141Z,78.55
2018-12-22T16:18:18.104Z,79.34
2018-12-22T16:21:22.160Z,77.64
2018-12-22T16:24:26.122Z,76.29
2018-12-22T16:27:30.194Z,75.97
2018-12-22T16:30:42.089Z,77.18
2018-12-22T16:33:46.315Z,76.93
2018-12-22T16:36:50.329Z,77.85
2018-12-22T16:39:54.447Z,76.92
2018-12-22T16:42:58.468Z,76.97
2018-12-22T16:46:02.677Z,77.61
2018-12-22T16:49:06.624Z,77.35
2018-12-22T16:52:10.696Z,77.19
2018-12-22T16:55:16.552Z,76.89
2018-12-22T16:58:25.776Z,76.93
2018-12-22T17:01:35.613Z,77.45
2018-12-22T17:04:39.650Z,76.70
2018-12-22T17:07:43.700Z,76.23
2018-12-22T17:10:48.901Z,76.45
2018-12-22T17:13:52.840Z,76.64
2018-12-22T17:16:56.937Z,76.56
2018-12-22T17:20:00.873Z,76.71
2018-12-22T17:23:26.564Z,77.04
2018-12-22T17:26:32.223Z,77.53
2018-12-22T17:29:36.333Z,77.37
2018-12-22T17:32:40.293Z,77.46
2018-12-22T17:35:44.380Z,77.00
2018-12-22T17:38:48.320Z,77.32
2018-12-22T17:41:52.432Z,77.46
2018-12-22T17:44:57.088Z,77.34
2018-12-22T17:48:01.133Z,76.96
2018-12-22T17:51:05.085Z,77.18
2018-12-22T17:54:09.161Z,77.18
2018-12-22T17:57:13.112Z,76.91
2018-12-22T18:00:17.281Z,77.17
2018-12-22T18:03:27.437Z,77.48
2018-12-22T18:06:29.453Z,77.48
2018-12-22T18:09:33.391Z,77.89
2018-12-22T18:12:37.408Z,77.43
2018-12-22T18:15:41.371Z,77.58
2018-12-22T18:18:45.465Z,78.24
2018-12-22T18:21:49.413Z,78.61
2018-12-22T18:24:53.498Z,77.71
2018-12-22T18:27:57.437Z,76.68
2018-12-22T18:31:01.449Z,76.64
2018-12-22T18:34:05.393Z,76.72
2018-12-22T18:37:09.441Z,77.33
2018-12-22T18:40:20.176Z,76.99
2018-12-22T18:43:24.235Z,77.34
2018-12-22T18:46:28.168Z,77.15
2018-12-22T18:49:32.357Z,76.70
2018-12-22T18:52:36.296Z,76.58
2018-12-22T18:55:40.386Z,77.09
2018-12-22T18:58:44.337Z,76.80
2018-12-22T19:01:48.413Z,76.33
2018-12-22T19:04:52.347Z,75.18
2018-12-22T19:07:56.537Z,74.92
2018-12-22T19:11:00.545Z,74.14
2018-12-22T19:14:04.565Z,74.20
2018-12-22T19:17:08.500Z,73.48
2018-12-22T19:20:17.942Z,73.99
2018-12-22T19:23:21.964Z,73.54
2018-12-22T19:26:26.149Z,74.23
2018-12-22T19:29:30.081Z,74.30
2018-12-22T19:32:34.176Z,74.16
2018-12-22T19:35:38.113Z,74.50
2018-12-22T19:38:42.204Z,74.56
2018-12-22T19:41:47.427Z,74.59
2018-12-22T19:44:51.444Z,74.10
2018-12-22T19:47:55.373Z,73.27
2018-12-22T19:50:59.485Z,72.66
2018-12-22T19:54:03.418Z,72.30
2018-12-22T19:57:07.517Z,71.79
2018-12-22T20:00:11.477Z,71.12
2018-12-22T20:03:15.515Z,71.43
2018-12-22T20:06:19.470Z,70.57
2018-12-22T20:09:23.564Z,70.27
2018-12-22T20:12:27.496Z,71.06
2018-12-22T20:15:31.536Z,71.21
2018-12-22T20:18:35.472Z,70.77
2018-12-22T20:21:39.517Z,70.97
2018-12-22T20:24:43.461Z,70.76
2018-12-22T20:27:47.471Z,71.92
2018-12-22T20:30:51.431Z,72.16
2018-12-22T20:33:55.470Z,72.49
2018-12-22T20:36:59.416Z,72.62
2018-12-22T20:40:04.006Z,72.78
2018-12-22T20:43:07.947Z,73.07
2018-12-22T20:46:12.229Z,73.43
2018-12-22T20:49:16.264Z,73.67
2018-12-22T20:52:20.468Z,73.38
2018-12-22T20:55:24.416Z,73.04
2018-12-22T20:58:28.500Z,72.69
2018-12-22T21:01:32.445Z,72.86
2018-12-22T21:04:36.516Z,72.23
2018-12-22T21:07:40.457Z,72.25
2018-12-22T21:10:45.352Z,72.57
2018-12-22T21:13:49.292Z,71.84
2018-12-22T21:16:53.397Z,72.65
2018-12-22T21:19:57.333Z,72.60
2018-12-22T21:23:01.435Z,72.14
2018-12-22T21:26:05.374Z,72.03
2018-12-22T21:29:09.465Z,72.04
2018-12-22T21:32:13.432Z,72.24
2018-12-22T21:35:17.579Z,72.34
2018-12-22T21:38:22.113Z,72.85
2018-12-22T21:41:26.233Z,72.99
2018-12-22T21:44:29.925Z,73.17
2018-12-22T21:47:34.054Z,73.33
2018-12-22T21:50:38.004Z,73.59
2018-12-22T21:53:42.069Z,73.50
2018-12-22T21:56:46.020Z,73.32
2018-12-22T21:59:50.099Z,73.57
2018-12-22T22:02:54.052Z,73.68
2018-12-22T22:05:58.132Z,73.52
2018-12-22T22:09:02.080Z,73.28
2018-12-22T22:12:06.268Z,73.71
2018-12-22T22:15:10.209Z,73.42
2018-12-22T22:18:14.241Z,73.94
2018-12-22T22:21:18.212Z,73.68
2018-12-22T22:24:22.308Z,74.20
2018-12-22T22:27:26.261Z,73.67
2018-12-22T22:30:30.384Z,74.18
2018-12-22T22:33:34.321Z,73.92
2018-12-22T22:36:38.467Z,73.54
2018-12-22T22:39:42.408Z,73.83
2018-12-22T22:42:46.500Z,74.44
2018-12-22T22:45:50.441Z,73.97
2018-12-22T22:48:54.452Z,73.76
2018-12-22T22:51:58.408Z,74.17
2018-12-22T22:55:02.425Z,74.22
2018-12-22T22:58:06.373Z,74.34
2018-12-22T23:01:10.572Z,74.16
2018-12-22T23:04:14.520Z,74.98
2018-12-22T23:07:18.605Z,74.74
2018-12-22T23:10:22.565Z,74.46
2018-12-22T23:13:26.583Z,74.97
2018-12-22T23:16:30.517Z,74.68
2018-12-22T23:19:35.121Z,74.32
2018-12-22T23:22:39.197Z,74.83
2018-12-22T23:25:43.292Z,74.39
2018-12-22T23:28:47.245Z,74.55
2018-12-22T23:31:51.328Z,74.35
2018-12-22T23:35:02.788Z,74.30
2018-12-22T23:38:01.503Z,74.06
2018-12-22T23:41:05.441Z,74.10
2018-12-22T23:44:09.525Z,73.67
2018-12-22T23:47:13.492Z,74.25
2018-12-22T23:50:17.549Z,74.49
2018-12-22T23:53:21.489Z,74.12
2018-12-22T23:56:25.577Z,74.00
2018-12-22T23:59:29.521Z,74.21
